sensor_id;sensor_type;location;lat;lon;timestamp;P1;durP1;ratioP1;P2;durP2;ratioP2
13588;SDS011;6865;52.552;13.434;2022-08-19T00:01:47;14.23;;;12.93;;
13588;SDS011;6865;52.552;13.434;2022-08-19T00:04:20;15.50;;;13.88;;
13588;SDS011;6865;52.552;13.434;2022-08-19T00:06:49;15.80;;;14.30;;
13588;SDS011;6865;52.552;13.434;2022-08-19T00:09:16;15.70;;;14.20;;
13588;SDS011;6865;52.552;13.434;2022-08-19T00:11:45;16.60;;;15.00;;
13588;SDS011;6865;52.552;13.434;2022-08-19T00:14:13;15.85;;;14.25;;
13588;SDS011;6865;52.552;13.434;2022-08-19T00:16:44;15.15;;;13.75;;
13588;SDS011;6865;52.552;13.434;2022-08-19T00:19:11;16.55;;;15.02;;
13588;SDS011;6865;52.552;13.434;2022-08-19T00:21:39;14.88;;;13.50;;
13588;SDS011;6865;52.552;13.434;2022-08-19T00:24:06;15.50;;;14.07;;
13588;SDS011;6865;52.552;13.434;2022-08-19T00:26:34;14.98;;;13.50;;
13588;SDS011;6865;52.552;13.434;2022-08-19T00:29:03;14.70;;;13.35;;
13588;SDS011;6865;52.552;13.434;2022-08-19T00:31:30;14.77;;;13.38;;
13588;SDS011;6865;52.552;13.434;2022-08-19T00:33:57;14.77;;;13.48;;
13588;SDS011;6865;52.552;13.434;2022-08-19T00:36:24;15.00;;;13.35;;
13588;SDS011;6865;52.552;13.434;2022-08-19T00:38:51;14.57;;;13.23;;
13588;SDS011;6865;52.552;13.434;2022-08-19T00:41:19;14.57;;;13.18;;
13588;SDS011;6865;52.552;13.434;2022-08-19T00:44:04;14.82;;;13.35;;
13588;SDS011;6865;52.552;13.434;2022-08-19T00:46:34;15.20;;;13.80;;
13588;SDS011;6865;52.552;13.434;2022-08-19T00:49:08;14.82;;;13.43;;
13588;SDS011;6865;52.552;13.434;2022-08-19T00:51:40;15.07;;;13.48;;
13588;SDS011;6865;52.552;13.434;2022-08-19T00:54:10;14.27;;;12.85;;
13588;SDS011;6865;52.552;13.434;2022-08-19T00:56:38;15.05;;;13.55;;
13588;SDS011;6865;52.552;13.434;2022-08-19T00:59:07;15.65;;;14.15;;
13588;SDS011;6865;52.552;13.434;2022-08-19T01:01:36;14.88;;;13.48;;
13588;SDS011;6865;52.552;13.434;2022-08-19T01:04:04;16.02;;;14.30;;
13588;SDS011;6865;52.552;13.434;2022-08-19T01:06:32;16.17;;;14.48;;
13588;SDS011;6865;52.552;13.434;2022-08-19T01:08:59;15.95;;;14.45;;
13588;SDS011;6865;52.552;13.434;2022-08-19T01:11:27;15.73;;;14.20;;
13588;SDS011;6865;52.552;13.434;2022-08-19T01:13:54;15.30;;;13.88;;
13588;SDS011;6865;52.552;13.434;2022-08-19T01:16:22;15.07;;;13.68;;
13588;SDS011;6865;52.552;13.434;2022-08-19T01:18:51;15.98;;;14.25;;
13588;SDS011;6865;52.552;13.434;2022-08-19T01:21:22;14.38;;;13.18;;
13588;SDS011;6865;52.552;13.434;2022-08-19T01:23:57;15.43;;;14.13;;
13588;SDS011;6865;52.552;13.434;2022-08-19T01:26:25;16.13;;;14.63;;
13588;SDS011;6865;52.552;13.434;2022-08-19T01:28:54;16.27;;;14.52;;
13588;SDS011;6865;52.552;13.434;2022-08-19T01:31:27;16.30;;;14.80;;
13588;SDS011;6865;52.552;13.434;2022-08-19T01:33:58;16.58;;;14.80;;
13588;SDS011;6865;52.552;13.434;2022-08-19T01:36:28;17.17;;;15.35;;
13588;SDS011;6865;52.552;13.434;2022-08-19T01:39:02;17.35;;;15.63;;
13588;SDS011;6865;52.552;13.434;2022-08-19T01:41:31;16.85;;;15.23;;
13588;SDS011;6865;52.552;13.434;2022-08-19T01:43:58;16.70;;;15.02;;
13588;SDS011;6865;52.552;13.434;2022-08-19T01:46:43;17.40;;;15.70;;
13588;SDS011;6865;52.552;13.434;2022-08-19T01:49:10;17.17;;;15.55;;
13588;SDS011;6865;52.552;13.434;2022-08-19T01:51:37;17.30;;;15.50;;
13588;SDS011;6865;52.552;13.434;2022-08-19T01:54:05;16.38;;;14.88;;
13588;SDS011;6865;52.552;13.434;2022-08-19T01:56:33;17.02;;;15.43;;
13588;SDS011;6865;52.552;13.434;2022-08-19T01:59:01;17.60;;;15.80;;
13588;SDS011;6865;52.552;13.434;2022-08-19T02:01:30;17.40;;;15.80;;
13588;SDS011;6865;52.552;13.434;2022-08-19T02:03:58;20.85;;;18.65;;
13588;SDS011;6865;52.552;13.434;2022-08-19T02:06:27;19.33;;;17.40;;
13588;SDS011;6865;52.552;13.434;2022-08-19T02:08:54;18.40;;;16.45;;
13588;SDS011;6865;52.552;13.434;2022-08-19T02:11:24;18.88;;;16.65;;
13588;SDS011;6865;52.552;13.434;2022-08-19T02:13:54;17.83;;;16.02;;
13588;SDS011;6865;52.552;13.434;2022-08-19T02:16:21;18.50;;;16.65;;
13588;SDS011;6865;52.552;13.434;2022-08-19T02:18:47;16.73;;;15.13;;
13588;SDS011;6865;52.552;13.434;2022-08-19T02:21:15;16.88;;;15.25;;
13588;SDS011;6865;52.552;13.434;2022-08-19T02:23:43;16.80;;;15.02;;
13588;SDS011;6865;52.552;13.434;2022-08-19T02:26:10;18.02;;;16.13;;
13588;SDS011;6865;52.552;13.434;2022-08-19T02:28:38;20.55;;;18.55;;
13588;SDS011;6865;52.552;13.434;2022-08-19T02:31:10;20.50;;;18.48;;
13588;SDS011;6865;52.552;13.434;2022-08-19T02:33:42;19.85;;;18.00;;
13588;SDS011;6865;52.552;13.434;2022-08-19T02:36:09;19.00;;;17.20;;
13588;SDS011;6865;52.552;13.434;2022-08-19T02:38:38;17.58;;;15.90;;
13588;SDS011;6865;52.552;13.434;2022-08-19T02:41:07;16.60;;;15.00;;
13588;SDS011;6865;52.552;13.434;2022-08-19T02:43:39;15.23;;;13.82;;
13588;SDS011;6865;52.552;13.434;2022-08-19T02:46:28;15.32;;;13.73;;
13588;SDS011;6865;52.552;13.434;2022-08-19T02:48:57;14.43;;;13.02;;
13588;SDS011;6865;52.552;13.434;2022-08-19T02:51:31;14.52;;;13.13;;
13588;SDS011;6865;52.552;13.434;2022-08-19T02:54:00;15.50;;;13.80;;
13588;SDS011;6865;52.552;13.434;2022-08-19T02:56:27;17.52;;;13.75;;
13588;SDS011;6865;52.552;13.434;2022-08-19T02:58:54;14.80;;;13.38;;
13588;SDS011;6865;52.552;13.434;2022-08-19T03:01:28;13.98;;;12.57;;
13588;SDS011;6865;52.552;13.434;2022-08-19T03:03:59;14.90;;;13.27;;
13588;SDS011;6865;52.552;13.434;2022-08-19T03:06:27;15.98;;;13.38;;
13588;SDS011;6865;52.552;13.434;2022-08-19T03:08:54;14.88;;;13.32;;
13588;SDS011;6865;52.552;13.434;2022-08-19T03:11:23;15.30;;;13.73;;
13588;SDS011;6865;52.552;13.434;2022-08-19T03:13:55;16.05;;;14.10;;
13588;SDS011;6865;52.552;13.434;2022-08-19T03:16:24;15.38;;;13.88;;
13588;SDS011;6865;52.552;13.434;2022-08-19T03:18:52;16.02;;;14.50;;
13588;SDS011;6865;52.552;13.434;2022-08-19T03:21:20;15.60;;;14.07;;
13588;SDS011;6865;52.552;13.434;2022-08-19T03:23:50;16.15;;;14.55;;
13588;SDS011;6865;52.552;13.434;2022-08-19T03:26:20;15.18;;;13.77;;
13588;SDS011;6865;52.552;13.434;2022-08-19T03:28:47;16.98;;;15.32;;
13588;SDS011;6865;52.552;13.434;2022-08-19T03:31:24;15.90;;;14.40;;
13588;SDS011;6865;52.552;13.434;2022-08-19T03:34:12;16.25;;;14.75;;
13588;SDS011;6865;52.552;13.434;2022-08-19T03:36:41;16.50;;;14.90;;
13588;SDS011;6865;52.552;13.434;2022-08-19T03:39:09;16.17;;;14.55;;
13588;SDS011;6865;52.552;13.434;2022-08-19T03:41:37;15.95;;;14.43;;
13588;SDS011;6865;52.552;13.434;2022-08-19T03:44:15;15.75;;;14.15;;
13588;SDS011;6865;52.552;13.434;2022-08-19T03:46:47;15.00;;;13.57;;
13588;SDS011;6865;52.552;13.434;2022-08-19T03:49:19;16.00;;;14.30;;
13588;SDS011;6865;52.552;13.434;2022-08-19T03:51:53;16.27;;;14.77;;
13588;SDS011;6865;52.552;13.434;2022-08-19T03:54:21;15.93;;;14.38;;
13588;SDS011;6865;52.552;13.434;2022-08-19T03:56:49;15.10;;;13.70;;
13588;SDS011;6865;52.552;13.434;2022-08-19T03:59:20;15.90;;;14.38;;
13588;SDS011;6865;52.552;13.434;2022-08-19T04:01:52;15.93;;;14.32;;
13588;SDS011;6865;52.552;13.434;2022-08-19T04:04:20;15.52;;;13.93;;
13588;SDS011;6865;52.552;13.434;2022-08-19T04:06:48;15.20;;;13.60;;
13588;SDS011;6865;52.552;13.434;2022-08-19T04:09:16;16.20;;;14.60;;
13588;SDS011;6865;52.552;13.434;2022-08-19T04:11:45;15.77;;;14.20;;
13588;SDS011;6865;52.552;13.434;2022-08-19T04:14:16;16.63;;;14.98;;
13588;SDS011;6865;52.552;13.434;2022-08-19T04:16:45;15.57;;;13.98;;
13588;SDS011;6865;52.552;13.434;2022-08-19T04:19:13;15.48;;;14.00;;
13588;SDS011;6865;52.552;13.434;2022-08-19T04:21:42;15.45;;;13.98;;
13588;SDS011;6865;52.552;13.434;2022-08-19T04:24:11;15.43;;;13.95;;
13588;SDS011;6865;52.552;13.434;2022-08-19T04:26:38;15.90;;;14.27;;
13588;SDS011;6865;52.552;13.434;2022-08-19T04:29:07;17.08;;;15.48;;
13588;SDS011;6865;52.552;13.434;2022-08-19T04:31:38;16.67;;;15.15;;
13588;SDS011;6865;52.552;13.434;2022-08-19T04:34:07;17.05;;;15.45;;
13588;SDS011;6865;52.552;13.434;2022-08-19T04:36:37;17.98;;;15.60;;
13588;SDS011;6865;52.552;13.434;2022-08-19T04:39:07;17.45;;;15.75;;
13588;SDS011;6865;52.552;13.434;2022-08-19T04:41:35;17.85;;;16.02;;
13588;SDS011;6865;52.552;13.434;2022-08-19T04:44:20;17.95;;;16.20;;
13588;SDS011;6865;52.552;13.434;2022-08-19T04:46:48;17.15;;;15.40;;
13588;SDS011;6865;52.552;13.434;2022-08-19T04:49:17;17.80;;;16.08;;
13588;SDS011;6865;52.552;13.434;2022-08-19T04:51:46;17.77;;;16.05;;
13588;SDS011;6865;52.552;13.434;2022-08-19T04:54:14;16.50;;;14.80;;
13588;SDS011;6865;52.552;13.434;2022-08-19T04:57:02;16.92;;;15.23;;
13588;SDS011;6865;52.552;13.434;2022-08-19T04:59:32;16.77;;;15.15;;
13588;SDS011;6865;52.552;13.434;2022-08-19T05:01:59;16.40;;;14.80;;
13588;SDS011;6865;52.552;13.434;2022-08-19T05:04:26;17.48;;;15.77;;
13588;SDS011;6865;52.552;13.434;2022-08-19T05:06:58;17.25;;;15.35;;
13588;SDS011;6865;52.552;13.434;2022-08-19T05:09:26;17.98;;;16.08;;
13588;SDS011;6865;52.552;13.434;2022-08-19T05:12:13;17.75;;;15.93;;
13588;SDS011;6865;52.552;13.434;2022-08-19T05:14:41;16.77;;;15.05;;
13588;SDS011;6865;52.552;13.434;2022-08-19T05:17:07;17.08;;;15.25;;
13588;SDS011;6865;52.552;13.434;2022-08-19T05:19:52;16.80;;;15.10;;
13588;SDS011;6865;52.552;13.434;2022-08-19T05:22:38;17.75;;;16.05;;
13588;SDS011;6865;52.552;13.434;2022-08-19T05:25:06;17.55;;;15.75;;
13588;SDS011;6865;52.552;13.434;2022-08-19T05:27:38;16.60;;;15.00;;
13588;SDS011;6865;52.552;13.434;2022-08-19T05:30:05;16.70;;;15.20;;
13588;SDS011;6865;52.552;13.434;2022-08-19T05:32:32;17.60;;;16.00;;
13588;SDS011;6865;52.552;13.434;2022-08-19T05:34:59;16.40;;;14.93;;
13588;SDS011;6865;52.552;13.434;2022-08-19T05:37:26;16.38;;;14.77;;
13588;SDS011;6865;52.552;13.434;2022-08-19T05:39:53;17.02;;;15.10;;
13588;SDS011;6865;52.552;13.434;2022-08-19T05:42:20;15.38;;;13.88;;
13588;SDS011;6865;52.552;13.434;2022-08-19T05:44:49;15.43;;;13.90;;
13588;SDS011;6865;52.552;13.434;2022-08-19T05:47:16;15.43;;;13.93;;
13588;SDS011;6865;52.552;13.434;2022-08-19T05:49:45;16.02;;;14.55;;
13588;SDS011;6865;52.552;13.434;2022-08-19T05:52:13;16.02;;;14.50;;
13588;SDS011;6865;52.552;13.434;2022-08-19T05:54:44;16.45;;;14.85;;
13588;SDS011;6865;52.552;13.434;2022-08-19T05:57:16;16.08;;;14.52;;
13588;SDS011;6865;52.552;13.434;2022-08-19T05:59:44;15.55;;;14.15;;
13588;SDS011;6865;52.552;13.434;2022-08-19T06:02:24;16.48;;;14.88;;
13588;SDS011;6865;52.552;13.434;2022-08-19T06:04:51;16.02;;;14.23;;
13588;SDS011;6865;52.552;13.434;2022-08-19T06:07:18;15.32;;;13.93;;
13588;SDS011;6865;52.552;13.434;2022-08-19T06:09:45;16.48;;;14.68;;
13588;SDS011;6865;52.552;13.434;2022-08-19T06:12:26;16.88;;;15.18;;
13588;SDS011;6865;52.552;13.434;2022-08-19T06:15:05;15.75;;;14.15;;
13588;SDS011;6865;52.552;13.434;2022-08-19T06:17:34;16.23;;;14.50;;
13588;SDS011;6865;52.552;13.434;2022-08-19T06:20:03;16.33;;;14.57;;
13588;SDS011;6865;52.552;13.434;2022-08-19T06:22:30;16.55;;;14.85;;
13588;SDS011;6865;52.552;13.434;2022-08-19T06:24:57;16.83;;;15.13;;
13588;SDS011;6865;52.552;13.434;2022-08-19T06:27:24;16.85;;;15.13;;
13588;SDS011;6865;52.552;13.434;2022-08-19T06:29:50;17.25;;;15.50;;
13588;SDS011;6865;52.552;13.434;2022-08-19T06:32:17;15.90;;;14.40;;
13588;SDS011;6865;52.552;13.434;2022-08-19T06:34:45;17.38;;;15.68;;
13588;SDS011;6865;52.552;13.434;2022-08-19T06:37:12;17.15;;;15.40;;
13588;SDS011;6865;52.552;13.434;2022-08-19T06:39:40;16.73;;;15.02;;
13588;SDS011;6865;52.552;13.434;2022-08-19T06:42:08;16.35;;;14.75;;
13588;SDS011;6865;52.552;13.434;2022-08-19T06:44:38;17.35;;;15.63;;
13588;SDS011;6865;52.552;13.434;2022-08-19T06:47:09;17.27;;;15.52;;
13588;SDS011;6865;52.552;13.434;2022-08-19T06:49:48;18.05;;;14.90;;
13588;SDS011;6865;52.552;13.434;2022-08-19T06:52:15;17.08;;;15.45;;
13588;SDS011;6865;52.552;13.434;2022-08-19T06:54:42;17.13;;;15.52;;
13588;SDS011;6865;52.552;13.434;2022-08-19T06:57:22;17.00;;;15.45;;
13588;SDS011;6865;52.552;13.434;2022-08-19T06:59:49;17.20;;;15.40;;
13588;SDS011;6865;52.552;13.434;2022-08-19T07:02:16;19.05;;;16.35;;
13588;SDS011;6865;52.552;13.434;2022-08-19T07:04:48;18.38;;;16.50;;
13588;SDS011;6865;52.552;13.434;2022-08-19T07:07:18;18.05;;;16.25;;
13588;SDS011;6865;52.552;13.434;2022-08-19T07:09:47;17.75;;;15.95;;
13588;SDS011;6865;52.552;13.434;2022-08-19T07:12:26;18.35;;;16.50;;
13588;SDS011;6865;52.552;13.434;2022-08-19T07:14:56;16.88;;;15.27;;
13588;SDS011;6865;52.552;13.434;2022-08-19T07:17:23;18.52;;;16.65;;
13588;SDS011;6865;52.552;13.434;2022-08-19T07:19:50;17.83;;;16.17;;
13588;SDS011;6865;52.552;13.434;2022-08-19T07:22:20;18.02;;;16.20;;
13588;SDS011;6865;52.552;13.434;2022-08-19T07:24:49;19.17;;;17.20;;
13588;SDS011;6865;52.552;13.434;2022-08-19T07:27:17;21.95;;;17.05;;
13588;SDS011;6865;52.552;13.434;2022-08-19T07:29:50;17.52;;;15.65;;
13588;SDS011;6865;52.552;13.434;2022-08-19T07:32:23;18.95;;;17.17;;
13588;SDS011;6865;52.552;13.434;2022-08-19T07:34:52;19.08;;;17.27;;
13588;SDS011;6865;52.552;13.434;2022-08-19T07:37:19;18.45;;;16.67;;
13588;SDS011;6865;52.552;13.434;2022-08-19T07:39:45;19.45;;;17.45;;
13588;SDS011;6865;52.552;13.434;2022-08-19T07:42:12;17.90;;;16.30;;
13588;SDS011;6865;52.552;13.434;2022-08-19T07:44:40;20.10;;;18.15;;
13588;SDS011;6865;52.552;13.434;2022-08-19T07:47:07;18.75;;;16.92;;
13588;SDS011;6865;52.552;13.434;2022-08-19T07:49:54;19.38;;;17.55;;
13588;SDS011;6865;52.552;13.434;2022-08-19T07:52:21;20.00;;;18.05;;
13588;SDS011;6865;52.552;13.434;2022-08-19T07:54:48;23.13;;;19.00;;
13588;SDS011;6865;52.552;13.434;2022-08-19T07:57:16;19.88;;;18.05;;
13588;SDS011;6865;52.552;13.434;2022-08-19T07:59:42;20.00;;;18.00;;
13588;SDS011;6865;52.552;13.434;2022-08-19T08:02:09;20.27;;;18.17;;
13588;SDS011;6865;52.552;13.434;2022-08-19T08:04:36;19.85;;;17.95;;
13588;SDS011;6865;52.552;13.434;2022-08-19T08:07:21;20.80;;;18.50;;
13588;SDS011;6865;52.552;13.434;2022-08-19T08:10:11;20.25;;;18.25;;
13588;SDS011;6865;52.552;13.434;2022-08-19T08:12:46;21.50;;;19.27;;
13588;SDS011;6865;52.552;13.434;2022-08-19T08:15:33;20.27;;;18.27;;
13588;SDS011;6865;52.552;13.434;2022-08-19T08:18:07;20.23;;;18.25;;
13588;SDS011;6865;52.552;13.434;2022-08-19T08:20:34;20.23;;;18.30;;
13588;SDS011;6865;52.552;13.434;2022-08-19T08:23:01;20.85;;;18.73;;
13588;SDS011;6865;52.552;13.434;2022-08-19T08:25:46;21.27;;;19.05;;
13588;SDS011;6865;52.552;13.434;2022-08-19T08:28:15;19.10;;;17.20;;
13588;SDS011;6865;52.552;13.434;2022-08-19T08:30:43;19.55;;;17.65;;
13588;SDS011;6865;52.552;13.434;2022-08-19T08:33:17;20.60;;;18.60;;
13588;SDS011;6865;52.552;13.434;2022-08-19T08:35:59;20.92;;;18.73;;
13588;SDS011;6865;52.552;13.434;2022-08-19T08:38:29;20.13;;;18.23;;
13588;SDS011;6865;52.552;13.434;2022-08-19T08:41:07;22.23;;;20.02;;
13588;SDS011;6865;52.552;13.434;2022-08-19T08:43:49;21.75;;;19.65;;
13588;SDS011;6865;52.552;13.434;2022-08-19T08:46:21;21.35;;;19.17;;
13588;SDS011;6865;52.552;13.434;2022-08-19T08:49:13;20.13;;;18.02;;
13588;SDS011;6865;52.552;13.434;2022-08-19T08:52:03;19.88;;;17.88;;
13588;SDS011;6865;52.552;13.434;2022-08-19T08:54:34;19.48;;;17.63;;
13588;SDS011;6865;52.552;13.434;2022-08-19T08:57:27;20.88;;;18.98;;
13588;SDS011;6865;52.552;13.434;2022-08-19T09:00:07;20.85;;;18.75;;
13588;SDS011;6865;52.552;13.434;2022-08-19T09:02:41;20.17;;;18.23;;
13588;SDS011;6865;52.552;13.434;2022-08-19T09:05:09;20.50;;;18.58;;
13588;SDS011;6865;52.552;13.434;2022-08-19T09:07:51;20.50;;;18.80;;
13588;SDS011;6865;52.552;13.434;2022-08-19T09:10:34;18.88;;;16.98;;
13588;SDS011;6865;52.552;13.434;2022-08-19T09:13:30;19.27;;;17.58;;
13588;SDS011;6865;52.552;13.434;2022-08-19T09:16:06;21.13;;;18.00;;
13588;SDS011;6865;52.552;13.434;2022-08-19T09:21:08;19.55;;;17.75;;
13588;SDS011;6865;52.552;13.434;2022-08-19T09:23:36;17.25;;;15.68;;
13588;SDS011;6865;52.552;13.434;2022-08-19T09:26:07;17.88;;;16.17;;
13588;SDS011;6865;52.552;13.434;2022-08-19T09:28:36;18.15;;;16.25;;
13588;SDS011;6865;52.552;13.434;2022-08-19T09:31:04;18.20;;;16.25;;
13588;SDS011;6865;52.552;13.434;2022-08-19T09:33:31;18.20;;;16.40;;
13588;SDS011;6865;52.552;13.434;2022-08-19T09:36:01;17.77;;;15.98;;
13588;SDS011;6865;52.552;13.434;2022-08-19T09:38:34;16.88;;;15.18;;
13588;SDS011;6865;52.552;13.434;2022-08-19T09:41:12;17.20;;;15.68;;
13588;SDS011;6865;52.552;13.434;2022-08-19T09:43:47;16.63;;;14.98;;
13588;SDS011;6865;52.552;13.434;2022-08-19T09:46:18;16.55;;;14.82;;
13588;SDS011;6865;52.552;13.434;2022-08-19T09:48:49;15.80;;;14.30;;
13588;SDS011;6865;52.552;13.434;2022-08-19T09:51:21;15.40;;;13.88;;
13588;SDS011;6865;52.552;13.434;2022-08-19T09:53:50;16.08;;;13.85;;
13588;SDS011;6865;52.552;13.434;2022-08-19T09:56:20;15.77;;;14.27;;
13588;SDS011;6865;52.552;13.434;2022-08-19T09:58:49;15.55;;;14.15;;
13588;SDS011;6865;52.552;13.434;2022-08-19T10:01:18;15.43;;;14.00;;
13588;SDS011;6865;52.552;13.434;2022-08-19T10:03:48;15.68;;;14.07;;
13588;SDS011;6865;52.552;13.434;2022-08-19T10:06:17;16.23;;;14.50;;
13588;SDS011;6865;52.552;13.434;2022-08-19T10:09:08;15.70;;;13.98;;
13588;SDS011;6865;52.552;13.434;2022-08-19T10:11:39;16.10;;;14.50;;
13588;SDS011;6865;52.552;13.434;2022-08-19T10:14:19;16.02;;;14.48;;
13588;SDS011;6865;52.552;13.434;2022-08-19T10:16:49;15.95;;;14.27;;
13588;SDS011;6865;52.552;13.434;2022-08-19T10:19:18;15.63;;;14.13;;
13588;SDS011;6865;52.552;13.434;2022-08-19T10:21:51;15.73;;;14.23;;
13588;SDS011;6865;52.552;13.434;2022-08-19T10:24:18;15.02;;;13.55;;
13588;SDS011;6865;52.552;13.434;2022-08-19T10:26:46;14.70;;;13.25;;
13588;SDS011;6865;52.552;13.434;2022-08-19T10:29:22;16.08;;;14.57;;
13588;SDS011;6865;52.552;13.434;2022-08-19T10:31:59;15.85;;;14.27;;
13588;SDS011;6865;52.552;13.434;2022-08-19T10:34:37;21.85;;;14.30;;
13588;SDS011;6865;52.552;13.434;2022-08-19T10:37:14;16.13;;;14.68;;
13588;SDS011;6865;52.552;13.434;2022-08-19T10:39:56;17.30;;;14.52;;
13588;SDS011;6865;52.552;13.434;2022-08-19T10:42:23;16.15;;;14.43;;
13588;SDS011;6865;52.552;13.434;2022-08-19T10:44:50;16.38;;;14.77;;
13588;SDS011;6865;52.552;13.434;2022-08-19T10:47:17;15.63;;;13.93;;
13588;SDS011;6865;52.552;13.434;2022-08-19T10:49:52;16.27;;;14.77;;
13588;SDS011;6865;52.552;13.434;2022-08-19T10:52:39;15.10;;;13.70;;
13588;SDS011;6865;52.552;13.434;2022-08-19T10:55:16;15.13;;;13.52;;
13588;SDS011;6865;52.552;13.434;2022-08-19T10:58:03;17.75;;;14.30;;
13588;SDS011;6865;52.552;13.434;2022-08-19T11:00:30;15.40;;;13.70;;
13588;SDS011;6865;52.552;13.434;2022-08-19T11:02:57;14.38;;;12.60;;
13588;SDS011;6865;52.552;13.434;2022-08-19T11:05:24;14.15;;;12.85;;
13588;SDS011;6865;52.552;13.434;2022-08-19T11:07:50;15.13;;;13.73;;
13588;SDS011;6865;52.552;13.434;2022-08-19T11:10:18;14.13;;;12.80;;
13588;SDS011;6865;52.552;13.434;2022-08-19T11:12:47;16.17;;;14.48;;
13588;SDS011;6865;52.552;13.434;2022-08-19T11:15:14;15.45;;;13.95;;
13588;SDS011;6865;52.552;13.434;2022-08-19T11:17:41;15.93;;;14.32;;
13588;SDS011;6865;52.552;13.434;2022-08-19T11:20:13;14.77;;;13.38;;
13588;SDS011;6865;52.552;13.434;2022-08-19T11:22:41;14.65;;;13.07;;
13588;SDS011;6865;52.552;13.434;2022-08-19T11:25:09;15.07;;;13.50;;
13588;SDS011;6865;52.552;13.434;2022-08-19T11:27:38;15.68;;;14.18;;
13588;SDS011;6865;52.552;13.434;2022-08-19T11:30:08;16.23;;;14.52;;
13588;SDS011;6865;52.552;13.434;2022-08-19T11:32:38;14.90;;;13.55;;
13588;SDS011;6865;52.552;13.434;2022-08-19T11:35:10;15.50;;;14.07;;
13588;SDS011;6865;52.552;13.434;2022-08-19T11:37:37;15.25;;;13.75;;
13588;SDS011;6865;52.552;13.434;2022-08-19T11:40:06;14.50;;;13.10;;
13588;SDS011;6865;52.552;13.434;2022-08-19T11:42:33;14.82;;;13.32;;
13588;SDS011;6865;52.552;13.434;2022-08-19T11:45:18;14.40;;;13.15;;
13588;SDS011;6865;52.552;13.434;2022-08-19T11:47:45;14.68;;;13.02;;
13588;SDS011;6865;52.552;13.434;2022-08-19T11:50:13;13.68;;;12.43;;
13588;SDS011;6865;52.552;13.434;2022-08-19T11:52:41;14.27;;;13.02;;
13588;SDS011;6865;52.552;13.434;2022-08-19T11:55:08;13.70;;;12.35;;
13588;SDS011;6865;52.552;13.434;2022-08-19T11:57:35;13.90;;;12.50;;
13588;SDS011;6865;52.552;13.434;2022-08-19T12:00:02;13.18;;;11.85;;
13588;SDS011;6865;52.552;13.434;2022-08-19T12:02:31;11.77;;;10.77;;
13588;SDS011;6865;52.552;13.434;2022-08-19T12:04:58;12.68;;;11.40;;
13588;SDS011;6865;52.552;13.434;2022-08-19T12:07:28;12.70;;;11.45;;
13588;SDS011;6865;52.552;13.434;2022-08-19T12:09:57;12.43;;;11.13;;
13588;SDS011;6865;52.552;13.434;2022-08-19T12:12:23;12.10;;;11.00;;
13588;SDS011;6865;52.552;13.434;2022-08-19T12:14:50;12.35;;;11.00;;
13588;SDS011;6865;52.552;13.434;2022-08-19T12:17:23;12.85;;;11.60;;
13588;SDS011;6865;52.552;13.434;2022-08-19T12:19:51;12.13;;;11.02;;
13588;SDS011;6865;52.552;13.434;2022-08-19T12:22:19;11.32;;;10.27;;
13588;SDS011;6865;52.552;13.434;2022-08-19T12:24:47;11.90;;;10.90;;
13588;SDS011;6865;52.552;13.434;2022-08-19T12:27:16;11.30;;;10.20;;
13588;SDS011;6865;52.552;13.434;2022-08-19T12:29:57;11.57;;;10.57;;
13588;SDS011;6865;52.552;13.434;2022-08-19T12:32:27;10.57;;;9.65;;
13588;SDS011;6865;52.552;13.434;2022-08-19T12:34:54;10.90;;;9.82;;
13588;SDS011;6865;52.552;13.434;2022-08-19T12:37:21;9.95;;;9.10;;
13588;SDS011;6865;52.552;13.434;2022-08-19T12:39:47;9.82;;;9.00;;
13588;SDS011;6865;52.552;13.434;2022-08-19T12:42:14;10.98;;;9.98;;
13588;SDS011;6865;52.552;13.434;2022-08-19T12:44:42;10.35;;;9.45;;
13588;SDS011;6865;52.552;13.434;2022-08-19T12:47:10;10.20;;;9.30;;
13588;SDS011;6865;52.552;13.434;2022-08-19T12:49:40;10.55;;;9.55;;
13588;SDS011;6865;52.552;13.434;2022-08-19T12:52:21;12.45;;;9.82;;
13588;SDS011;6865;52.552;13.434;2022-08-19T12:54:51;10.70;;;9.80;;
13588;SDS011;6865;52.552;13.434;2022-08-19T12:57:21;14.18;;;9.90;;
13588;SDS011;6865;52.552;13.434;2022-08-19T13:00:04;11.32;;;10.25;;
13588;SDS011;6865;52.552;13.434;2022-08-19T13:02:43;11.80;;;10.70;;
13588;SDS011;6865;52.552;13.434;2022-08-19T13:05:13;11.43;;;10.27;;
13588;SDS011;6865;52.552;13.434;2022-08-19T13:07:42;11.40;;;10.40;;
13588;SDS011;6865;52.552;13.434;2022-08-19T13:10:14;12.25;;;11.05;;
13588;SDS011;6865;52.552;13.434;2022-08-19T13:12:43;11.40;;;10.13;;
13588;SDS011;6865;52.552;13.434;2022-08-19T13:15:11;12.23;;;11.02;;
13588;SDS011;6865;52.552;13.434;2022-08-19T13:17:40;12.13;;;10.75;;
13588;SDS011;6865;52.552;13.434;2022-08-19T13:20:08;11.27;;;10.27;;
13588;SDS011;6865;52.552;13.434;2022-08-19T13:22:36;12.27;;;10.98;;
13588;SDS011;6865;52.552;13.434;2022-08-19T13:25:06;11.77;;;10.60;;
13588;SDS011;6865;52.552;13.434;2022-08-19T13:27:34;12.00;;;10.90;;
13588;SDS011;6865;52.552;13.434;2022-08-19T13:30:03;12.52;;;11.25;;
13588;SDS011;6865;52.552;13.434;2022-08-19T13:32:49;12.93;;;11.65;;
13588;SDS011;6865;52.552;13.434;2022-08-19T13:35:34;12.25;;;11.15;;
13588;SDS011;6865;52.552;13.434;2022-08-19T13:38:01;12.35;;;11.13;;
13588;SDS011;6865;52.552;13.434;2022-08-19T13:40:37;11.75;;;10.63;;
13588;SDS011;6865;52.552;13.434;2022-08-19T13:43:06;12.43;;;11.23;;
13588;SDS011;6865;52.552;13.434;2022-08-19T13:45:52;11.65;;;10.60;;
13588;SDS011;6865;52.552;13.434;2022-08-19T13:48:22;12.48;;;11.27;;
13588;SDS011;6865;52.552;13.434;2022-08-19T13:50:51;11.73;;;10.73;;
13588;SDS011;6865;52.552;13.434;2022-08-19T13:53:17;11.68;;;10.63;;
13588;SDS011;6865;52.552;13.434;2022-08-19T13:55:44;11.85;;;10.80;;
13588;SDS011;6865;52.552;13.434;2022-08-19T13:58:11;13.00;;;11.80;;
13588;SDS011;6865;52.552;13.434;2022-08-19T14:00:40;11.05;;;10.15;;
13588;SDS011;6865;52.552;13.434;2022-08-19T14:03:09;12.75;;;11.10;;
13588;SDS011;6865;52.552;13.434;2022-08-19T14:05:37;12.93;;;11.20;;
13588;SDS011;6865;52.552;13.434;2022-08-19T14:08:04;11.57;;;10.50;;
13588;SDS011;6865;52.552;13.434;2022-08-19T14:10:31;12.00;;;10.90;;
13588;SDS011;6865;52.552;13.434;2022-08-19T14:12:59;11.80;;;10.77;;
13588;SDS011;6865;52.552;13.434;2022-08-19T14:15:27;11.98;;;10.68;;
13588;SDS011;6865;52.552;13.434;2022-08-19T14:17:55;14.60;;;11.10;;
13588;SDS011;6865;52.552;13.434;2022-08-19T14:20:22;12.02;;;10.85;;
13588;SDS011;6865;52.552;13.434;2022-08-19T14:22:51;12.15;;;11.05;;
13588;SDS011;6865;52.552;13.434;2022-08-19T14:25:20;12.32;;;11.10;;
13588;SDS011;6865;52.552;13.434;2022-08-19T14:27:50;11.93;;;10.73;;
13588;SDS011;6865;52.552;13.434;2022-08-19T14:30:18;12.23;;;10.95;;
13588;SDS011;6865;52.552;13.434;2022-08-19T14:32:48;12.60;;;11.27;;
13588;SDS011;6865;52.552;13.434;2022-08-19T14:35:15;12.05;;;10.90;;
13588;SDS011;6865;52.552;13.434;2022-08-19T14:37:42;11.95;;;10.85;;
13588;SDS011;6865;52.552;13.434;2022-08-19T14:40:12;11.85;;;10.65;;
13588;SDS011;6865;52.552;13.434;2022-08-19T14:42:43;11.50;;;10.50;;
13588;SDS011;6865;52.552;13.434;2022-08-19T14:45:11;11.80;;;10.68;;